Cocoa, Florida
Current Conditions -  °F | °C
As of 1:58 PM on Thursday 23 Oct 2014 (Local Time) from KCOF Reporting Station
Clear Clear  
Wind Chill: 79°   Ceiling: Unl
Heat Index: 80°   Visibility: 10mi
Dew Point: 60°   Wind: 13mph
Humidity: 53%   Direction: 40°NE
Pressure: 29.97"   Gusts: NA
Location:  28.35°N, 80.73°W
Report Text: KCOF 231758Z AUTO 04011KT 10SM CLR 26/16 A2997 RMK AO2 SLP153 T02600156 10262 20228 58010
Loading
Personal Weather Stations






























Interactive Weather Map New forecast layout! Learn more

10-Day Weather Forecast

Advertisements
Track Severe Weather on mobile